Dudley J. Settoon — WDD4745 — position and weather

sailwx.info

Track history (hours):
 
Tides and Currents Weather Stations Pressure Air Temp Water Temp Dewpoint Dewpoint Depression Visibility Wind Speed Wind Dir Waves Ship Positions

Dudley J. Settoon

Owner: Settoon Towing, LLC, Gibson, LA. More information available from US FCC via Universal Licensing System and Coast Guard Vessel Documentation Center.

Last reported at 2017-Oct-13 12:22 UTC. Time now 2017-Oct-18 11:11 UTC.
Position N 30°08' W 090°12'.

Length 30 m; draft 5 m.

Type: Towing. MMSI: 366994890.

Date/timePositionNaut miles runAvg speedWind from/ knotsBaromVisibWave heightAir tempDewpointWater temp
2017-Oct-13 12:22N 30°08' W 090°12'  
2017-Oct-09 16:31N 29°33' W 090°24'0 6.7
2017-Oct-09 16:30N 29°33' W 090°25'3 6.7
2017-Oct-09 16:00N 29°34' W 090°28'3 6.7
2017-Oct-09 15:31N 29°34' W 090°32'3 6.4
2017-Oct-09 15:01N 29°35' W 090°36'3 6.5
2017-Oct-09 14:31N 29°36' W 090°39'3 5.8
2017-Oct-09 14:01N 29°37' W 090°42'2 3.9
2017-Oct-09 13:31N 29°35' W 090°43'0 0.0
2017-Oct-09 13:00N 29°35' W 090°43'0 0.0
2017-Oct-09 12:31N 29°35' W 090°43'0 0.0
2017-Oct-09 12:01N 29°35' W 090°43'0 0.0
2017-Oct-09 11:31N 29°35' W 090°43'0 0.0
2017-Oct-09 11:01N 29°35' W 090°43'0 0.0
2017-Oct-09 10:31N 29°35' W 090°43'0 0.0
2017-Oct-09 10:01N 29°35' W 090°43'0 0.0
2017-Oct-09 09:31N 29°35' W 090°43'0 0.0
2017-Oct-09 09:00N 29°35' W 090°43'0 0.0
2017-Oct-09 08:31N 29°35' W 090°43'0 0.0
2017-Oct-09 08:01N 29°35' W 090°43'0 0.0
2017-Oct-09 07:30N 29°35' W 090°43'0 0.0
2017-Oct-09 07:01N 29°35' W 090°43'0 0.0
2017-Oct-09 06:31N 29°35' W 090°43'0 0.0
2017-Oct-09 06:01N 29°35' W 090°43'0 0.0
2017-Oct-09 05:31N 29°35' W 090°43'1 2.3
2017-Oct-09 05:01N 29°34' W 090°44'3 6.3
2017-Oct-09 04:31N 29°32' W 090°47'64 4.1
2017-Oct-08 12:56N 29°50' W 091°58'54 1.2
2017-Oct-06 16:06N 29°36' W 090°58'2 6.3
2017-Oct-06 15:47N 29°34' W 090°57'2 6.6
2017-Oct-06 15:28N 29°33' W 090°54'3 6.2
2017-Oct-06 14:59N 29°32' W 090°51'3 6.5
2017-Oct-06 14:31N 29°32' W 090°48'3 5.5
2017-Oct-06 14:01N 29°34' W 090°45'3 5.4
2017-Oct-06 13:31N 29°35' W 090°43'2 3.6
2017-Oct-06 13:00N 29°36' W 090°41'3 5.5
2017-Oct-06 12:30N 29°35' W 090°38'3 6.1
2017-Oct-06 12:00N 29°34' W 090°35'3 6.3
2017-Oct-06 11:31N 29°34' W 090°31'  
Track history (hours):
 
Tides and Currents Weather Stations Pressure Air Temp Water Temp Dewpoint Dewpoint Depression Visibility Wind Speed Wind Dir Waves Ship Positions

Dudley J. Settoon

Owner: Settoon Towing, LLC, Gibson, LA. More information available from US FCC via Universal Licensing System and Coast Guard Vessel Documentation Center.

Last reported at 2017-Oct-13 12:22 UTC. Time now 2017-Oct-18 11:11 UTC.
Position N 30°08' W 090°12'.

Length 30 m; draft 5 m.

Type: Towing. MMSI: 366994890.

Date/timePositionNaut miles runAvg speedWind from/ knotsBaromVisibWave heightAir tempDewpointWater temp
2017-Oct-13 12:22N 30°08' W 090°12'  
2017-Oct-09 16:31N 29°33' W 090°24'0 6.7
2017-Oct-09 16:30N 29°33' W 090°25'3 6.7
2017-Oct-09 16:00N 29°34' W 090°28'3 6.7
2017-Oct-09 15:31N 29°34' W 090°32'3 6.4
2017-Oct-09 15:01N 29°35' W 090°36'3 6.5
2017-Oct-09 14:31N 29°36' W 090°39'3 5.8
2017-Oct-09 14:01N 29°37' W 090°42'2 3.9
2017-Oct-09 13:31N 29°35' W 090°43'0 0.0
2017-Oct-09 13:00N 29°35' W 090°43'0 0.0
2017-Oct-09 12:31N 29°35' W 090°43'0 0.0
2017-Oct-09 12:01N 29°35' W 090°43'0 0.0
2017-Oct-09 11:31N 29°35' W 090°43'0 0.0
2017-Oct-09 11:01N 29°35' W 090°43'0 0.0
2017-Oct-09 10:31N 29°35' W 090°43'0 0.0
2017-Oct-09 10:01N 29°35' W 090°43'0 0.0
2017-Oct-09 09:31N 29°35' W 090°43'0 0.0
2017-Oct-09 09:00N 29°35' W 090°43'0 0.0
2017-Oct-09 08:31N 29°35' W 090°43'0 0.0
2017-Oct-09 08:01N 29°35' W 090°43'0 0.0
2017-Oct-09 07:30N 29°35' W 090°43'0 0.0
2017-Oct-09 07:01N 29°35' W 090°43'0 0.0
2017-Oct-09 06:31N 29°35' W 090°43'0 0.0
2017-Oct-09 06:01N 29°35' W 090°43'0 0.0
2017-Oct-09 05:31N 29°35' W 090°43'1 2.3
2017-Oct-09 05:01N 29°34' W 090°44'3 6.3
2017-Oct-09 04:31N 29°32' W 090°47'64 4.1
2017-Oct-08 12:56N 29°50' W 091°58'54 1.2
2017-Oct-06 16:06N 29°36' W 090°58'2 6.3
2017-Oct-06 15:47N 29°34' W 090°57'2 6.6
2017-Oct-06 15:28N 29°33' W 090°54'3 6.2
2017-Oct-06 14:59N 29°32' W 090°51'3 6.5
2017-Oct-06 14:31N 29°32' W 090°48'3 5.5
2017-Oct-06 14:01N 29°34' W 090°45'3 5.4
2017-Oct-06 13:31N 29°35' W 090°43'2 3.6
2017-Oct-06 13:00N 29°36' W 090°41'3 5.5
2017-Oct-06 12:30N 29°35' W 090°38'3 6.1
2017-Oct-06 12:00N 29°34' W 090°35'3 6.3
2017-Oct-06 11:31N 29°34' W 090°31'  

Dump ship's entire track history